sensor_id;sensor_type;location;lat;lon;timestamp;P1;durP1;ratioP1;P2;durP2;ratioP2
16870;SDS011;8552;48.120;-1.456;2022-09-12T00:01:36;1.38;;;0.70;;
16870;SDS011;8552;48.120;-1.456;2022-09-12T00:04:02;4.25;;;1.00;;
16870;SDS011;8552;48.120;-1.456;2022-09-12T00:06:30;3.47;;;1.27;;
16870;SDS011;8552;48.120;-1.456;2022-09-12T00:08:59;1.33;;;1.10;;
16870;SDS011;8552;48.120;-1.456;2022-09-12T00:11:27;2.80;;;0.98;;
16870;SDS011;8552;48.120;-1.456;2022-09-12T00:13:57;0.93;;;0.90;;
16870;SDS011;8552;48.120;-1.456;2022-09-12T00:16:25;1.52;;;1.00;;
16870;SDS011;8552;48.120;-1.456;2022-09-12T00:18:52;2.83;;;1.50;;
16870;SDS011;8552;48.120;-1.456;2022-09-12T00:21:18;0.80;;;0.80;;
16870;SDS011;8552;48.120;-1.456;2022-09-12T00:23:45;2.38;;;0.98;;
16870;SDS011;8552;48.120;-1.456;2022-09-12T00:26:11;1.33;;;1.13;;
16870;SDS011;8552;48.120;-1.456;2022-09-12T00:28:38;3.45;;;1.10;;
16870;SDS011;8552;48.120;-1.456;2022-09-12T00:31:05;2.35;;;1.30;;
16870;SDS011;8552;48.120;-1.456;2022-09-12T00:33:33;1.25;;;0.80;;
16870;SDS011;8552;48.120;-1.456;2022-09-12T00:36:02;1.85;;;1.10;;
16870;SDS011;8552;48.120;-1.456;2022-09-12T00:38:31;2.58;;;1.10;;
16870;SDS011;8552;48.120;-1.456;2022-09-12T00:40:57;1.90;;;0.93;;
16870;SDS011;8552;48.120;-1.456;2022-09-12T00:45:59;1.20;;;1.10;;
16870;SDS011;8552;48.120;-1.456;2022-09-12T00:48:34;2.05;;;0.90;;
16870;SDS011;8552;48.120;-1.456;2022-09-12T00:51:05;1.65;;;0.88;;
16870;SDS011;8552;48.120;-1.456;2022-09-12T00:53:31;4.05;;;1.10;;
16870;SDS011;8552;48.120;-1.456;2022-09-12T00:55:56;2.08;;;1.02;;
16870;SDS011;8552;48.120;-1.456;2022-09-12T00:58:29;1.50;;;0.98;;
16870;SDS011;8552;48.120;-1.456;2022-09-12T01:01:01;1.10;;;1.00;;
16870;SDS011;8552;48.120;-1.456;2022-09-12T01:03:27;1.63;;;1.20;;
16870;SDS011;8552;48.120;-1.456;2022-09-12T01:08:37;0.77;;;0.75;;
16870;SDS011;8552;48.120;-1.456;2022-09-12T01:11:05;2.63;;;0.93;;
16870;SDS011;8552;48.120;-1.456;2022-09-12T01:13:35;2.97;;;1.00;;
16870;SDS011;8552;48.120;-1.456;2022-09-12T01:16:02;1.63;;;1.13;;
16870;SDS011;8552;48.120;-1.456;2022-09-12T01:24:37;2.20;;;1.13;;
16870;SDS011;8552;48.120;-1.456;2022-09-12T01:30:14;1.27;;;0.98;;
16870;SDS011;8552;48.120;-1.456;2022-09-12T01:35:50;1.27;;;1.05;;
16870;SDS011;8552;48.120;-1.456;2022-09-12T01:38:32;3.08;;;1.60;;
16870;SDS011;8552;48.120;-1.456;2022-09-12T01:41:25;2.35;;;1.23;;
16870;SDS011;8552;48.120;-1.456;2022-09-12T01:50:09;2.38;;;1.20;;
16870;SDS011;8552;48.120;-1.456;2022-09-12T01:52:21;1.25;;;1.15;;
16870;SDS011;8552;48.120;-1.456;2022-09-12T01:57:43;3.45;;;1.00;;
16870;SDS011;8552;48.120;-1.456;2022-09-12T02:00:13;3.78;;;0.90;;
16870;SDS011;8552;48.120;-1.456;2022-09-12T02:03:22;3.00;;;1.13;;
16870;SDS011;8552;48.120;-1.456;2022-09-12T02:05:56;3.55;;;0.90;;
16870;SDS011;8552;48.120;-1.456;2022-09-12T02:08:33;1.05;;;1.00;;
16870;SDS011;8552;48.120;-1.456;2022-09-12T02:11:08;1.40;;;1.02;;
16870;SDS011;8552;48.120;-1.456;2022-09-12T02:16:12;1.35;;;1.15;;
16870;SDS011;8552;48.120;-1.456;2022-09-12T02:18:48;1.77;;;1.10;;
16870;SDS011;8552;48.120;-1.456;2022-09-12T02:21:17;2.00;;;1.00;;
16870;SDS011;8552;48.120;-1.456;2022-09-12T02:23:46;4.28;;;1.15;;
16870;SDS011;8552;48.120;-1.456;2022-09-12T02:26:19;0.77;;;0.70;;
16870;SDS011;8552;48.120;-1.456;2022-09-12T02:28:49;1.98;;;1.33;;
16870;SDS011;8552;48.120;-1.456;2022-09-12T02:31:30;2.75;;;1.20;;
16870;SDS011;8552;48.120;-1.456;2022-09-12T02:39:35;1.63;;;1.27;;
16870;SDS011;8552;48.120;-1.456;2022-09-12T02:42:01;1.27;;;1.17;;
16870;SDS011;8552;48.120;-1.456;2022-09-12T02:44:28;2.80;;;1.27;;
16870;SDS011;8552;48.120;-1.456;2022-09-12T02:46:57;2.17;;;1.02;;
16870;SDS011;8552;48.120;-1.456;2022-09-12T02:49:37;2.10;;;1.20;;
16870;SDS011;8552;48.120;-1.456;2022-09-12T02:52:03;0.98;;;0.98;;
16870;SDS011;8552;48.120;-1.456;2022-09-12T02:54:28;1.10;;;1.00;;
16870;SDS011;8552;48.120;-1.456;2022-09-12T02:56:55;2.83;;;1.40;;
16870;SDS011;8552;48.120;-1.456;2022-09-12T02:59:20;8.75;;;1.58;;
16870;SDS011;8552;48.120;-1.456;2022-09-12T03:17:41;2.42;;;1.38;;
16870;SDS011;8552;48.120;-1.456;2022-09-12T03:25:50;3.88;;;1.45;;
16870;SDS011;8552;48.120;-1.456;2022-09-12T03:28:21;3.80;;;1.15;;
16870;SDS011;8552;48.120;-1.456;2022-09-12T03:30:48;2.95;;;1.60;;
16870;SDS011;8552;48.120;-1.456;2022-09-12T03:33:19;1.38;;;1.27;;
16870;SDS011;8552;48.120;-1.456;2022-09-12T03:35:47;4.07;;;1.30;;
16870;SDS011;8552;48.120;-1.456;2022-09-12T03:38:14;3.88;;;1.42;;
16870;SDS011;8552;48.120;-1.456;2022-09-12T03:40:40;1.85;;;1.23;;
16870;SDS011;8552;48.120;-1.456;2022-09-12T03:43:06;3.15;;;1.17;;
16870;SDS011;8552;48.120;-1.456;2022-09-12T03:45:33;2.53;;;1.35;;
16870;SDS011;8552;48.120;-1.456;2022-09-12T03:47:59;2.45;;;1.00;;
16870;SDS011;8552;48.120;-1.456;2022-09-12T03:50:24;1.13;;;1.02;;
16870;SDS011;8552;48.120;-1.456;2022-09-12T03:52:50;1.45;;;1.00;;
16870;SDS011;8552;48.120;-1.456;2022-09-12T03:55:16;2.25;;;1.45;;
16870;SDS011;8552;48.120;-1.456;2022-09-12T03:57:42;1.67;;;1.48;;
16870;SDS011;8552;48.120;-1.456;2022-09-12T04:00:08;1.13;;;1.08;;
16870;SDS011;8552;48.120;-1.456;2022-09-12T04:02:35;1.73;;;1.42;;
16870;SDS011;8552;48.120;-1.456;2022-09-12T04:05:00;1.30;;;1.15;;
16870;SDS011;8552;48.120;-1.456;2022-09-12T04:07:26;1.58;;;1.33;;
16870;SDS011;8552;48.120;-1.456;2022-09-12T04:09:52;1.00;;;1.00;;
16870;SDS011;8552;48.120;-1.456;2022-09-12T04:12:19;2.38;;;1.27;;
16870;SDS011;8552;48.120;-1.456;2022-09-12T04:14:45;1.17;;;1.08;;
16870;SDS011;8552;48.120;-1.456;2022-09-12T04:17:10;1.33;;;1.15;;
16870;SDS011;8552;48.120;-1.456;2022-09-12T04:19:36;1.10;;;0.90;;
16870;SDS011;8552;48.120;-1.456;2022-09-12T04:22:02;1.33;;;1.20;;
16870;SDS011;8552;48.120;-1.456;2022-09-12T04:24:28;1.85;;;0.93;;
16870;SDS011;8552;48.120;-1.456;2022-09-12T04:26:54;2.28;;;1.05;;
16870;SDS011;8552;48.120;-1.456;2022-09-12T04:29:19;2.03;;;1.13;;
16870;SDS011;8552;48.120;-1.456;2022-09-12T04:31:45;1.95;;;1.58;;
16870;SDS011;8552;48.120;-1.456;2022-09-12T04:34:11;1.55;;;0.88;;
16870;SDS011;8552;48.120;-1.456;2022-09-12T04:36:37;1.25;;;1.05;;
16870;SDS011;8552;48.120;-1.456;2022-09-12T04:39:03;1.17;;;0.88;;
16870;SDS011;8552;48.120;-1.456;2022-09-12T04:41:30;2.55;;;1.40;;
16870;SDS011;8552;48.120;-1.456;2022-09-12T04:43:58;4.05;;;1.33;;
16870;SDS011;8552;48.120;-1.456;2022-09-12T04:46:26;2.42;;;1.50;;
16870;SDS011;8552;48.120;-1.456;2022-09-12T04:48:53;1.33;;;1.23;;
16870;SDS011;8552;48.120;-1.456;2022-09-12T04:51:20;1.88;;;1.35;;
16870;SDS011;8552;48.120;-1.456;2022-09-12T04:53:50;2.38;;;1.50;;
16870;SDS011;8552;48.120;-1.456;2022-09-12T04:56:17;1.25;;;1.00;;
16870;SDS011;8552;48.120;-1.456;2022-09-12T04:58:44;1.88;;;0.85;;
16870;SDS011;8552;48.120;-1.456;2022-09-12T05:01:12;1.48;;;1.00;;
16870;SDS011;8552;48.120;-1.456;2022-09-12T05:03:42;2.08;;;1.20;;
16870;SDS011;8552;48.120;-1.456;2022-09-12T05:06:10;2.67;;;1.30;;
16870;SDS011;8552;48.120;-1.456;2022-09-12T05:08:38;2.50;;;1.30;;
16870;SDS011;8552;48.120;-1.456;2022-09-12T05:11:05;3.58;;;1.20;;
16870;SDS011;8552;48.120;-1.456;2022-09-12T05:13:34;2.17;;;1.02;;
16870;SDS011;8552;48.120;-1.456;2022-09-12T05:16:00;3.08;;;1.30;;
16870;SDS011;8552;48.120;-1.456;2022-09-12T05:18:29;3.17;;;1.30;;
16870;SDS011;8552;48.120;-1.456;2022-09-12T05:21:00;1.63;;;1.40;;
16870;SDS011;8552;48.120;-1.456;2022-09-12T05:23:29;1.08;;;0.95;;
16870;SDS011;8552;48.120;-1.456;2022-09-12T05:25:56;3.17;;;1.60;;
16870;SDS011;8552;48.120;-1.456;2022-09-12T05:28:23;2.35;;;1.38;;
16870;SDS011;8552;48.120;-1.456;2022-09-12T05:33:47;2.50;;;1.30;;
16870;SDS011;8552;48.120;-1.456;2022-09-12T05:36:16;1.70;;;1.27;;
16870;SDS011;8552;48.120;-1.456;2022-09-12T05:38:43;2.58;;;1.48;;
16870;SDS011;8552;48.120;-1.456;2022-09-12T05:41:11;4.38;;;1.45;;
16870;SDS011;8552;48.120;-1.456;2022-09-12T05:43:38;2.00;;;1.30;;
16870;SDS011;8552;48.120;-1.456;2022-09-12T05:46:10;2.30;;;1.60;;
16870;SDS011;8552;48.120;-1.456;2022-09-12T05:48:41;2.15;;;1.60;;
16870;SDS011;8552;48.120;-1.456;2022-09-12T05:51:09;1.83;;;1.13;;
16870;SDS011;8552;48.120;-1.456;2022-09-12T05:53:44;1.67;;;1.50;;
16870;SDS011;8552;48.120;-1.456;2022-09-12T05:56:12;1.50;;;1.40;;
16870;SDS011;8552;48.120;-1.456;2022-09-12T05:58:41;1.83;;;1.48;;
16870;SDS011;8552;48.120;-1.456;2022-09-12T06:01:10;2.13;;;1.50;;
16870;SDS011;8552;48.120;-1.456;2022-09-12T06:03:47;8.00;;;1.88;;
16870;SDS011;8552;48.120;-1.456;2022-09-12T06:06:16;3.60;;;1.50;;
16870;SDS011;8552;48.120;-1.456;2022-09-12T06:08:43;2.97;;;1.60;;
16870;SDS011;8552;48.120;-1.456;2022-09-12T06:11:11;3.80;;;1.50;;
16870;SDS011;8552;48.120;-1.456;2022-09-12T06:13:42;2.45;;;1.60;;
16870;SDS011;8552;48.120;-1.456;2022-09-12T06:16:09;3.60;;;2.10;;
16870;SDS011;8552;48.120;-1.456;2022-09-12T06:18:37;3.33;;;1.50;;
16870;SDS011;8552;48.120;-1.456;2022-09-12T06:21:03;2.00;;;1.77;;
16870;SDS011;8552;48.120;-1.456;2022-09-12T06:23:30;2.00;;;1.80;;
16870;SDS011;8552;48.120;-1.456;2022-09-12T06:25:56;2.35;;;1.48;;
16870;SDS011;8552;48.120;-1.456;2022-09-12T06:28:22;5.20;;;1.52;;
16870;SDS011;8552;48.120;-1.456;2022-09-12T06:30:48;2.28;;;1.70;;
16870;SDS011;8552;48.120;-1.456;2022-09-12T06:33:14;1.90;;;1.70;;
16870;SDS011;8552;48.120;-1.456;2022-09-12T06:35:41;2.00;;;1.80;;
16870;SDS011;8552;48.120;-1.456;2022-09-12T06:38:06;2.85;;;1.70;;
16870;SDS011;8552;48.120;-1.456;2022-09-12T06:40:33;4.18;;;2.00;;
16870;SDS011;8552;48.120;-1.456;2022-09-12T06:43:04;3.45;;;2.03;;
16870;SDS011;8552;48.120;-1.456;2022-09-12T06:45:30;2.05;;;1.90;;
16870;SDS011;8552;48.120;-1.456;2022-09-12T06:47:56;2.25;;;1.60;;
16870;SDS011;8552;48.120;-1.456;2022-09-12T06:50:22;2.35;;;1.80;;
16870;SDS011;8552;48.120;-1.456;2022-09-12T06:52:48;3.53;;;1.50;;
16870;SDS011;8552;48.120;-1.456;2022-09-12T06:55:15;3.10;;;1.70;;
16870;SDS011;8552;48.120;-1.456;2022-09-12T06:57:42;1.52;;;1.42;;
16870;SDS011;8552;48.120;-1.456;2022-09-12T07:00:08;3.00;;;1.60;;
16870;SDS011;8552;48.120;-1.456;2022-09-12T07:02:34;1.73;;;1.23;;
16870;SDS011;8552;48.120;-1.456;2022-09-12T07:05:00;1.83;;;1.70;;
16870;SDS011;8552;48.120;-1.456;2022-09-12T07:07:26;1.73;;;1.63;;
16870;SDS011;8552;48.120;-1.456;2022-09-12T07:09:51;2.88;;;1.30;;
16870;SDS011;8552;48.120;-1.456;2022-09-12T07:12:18;3.78;;;1.85;;
16870;SDS011;8552;48.120;-1.456;2022-09-12T07:14:43;2.00;;;1.67;;
16870;SDS011;8552;48.120;-1.456;2022-09-12T07:17:09;2.08;;;1.73;;
16870;SDS011;8552;48.120;-1.456;2022-09-12T07:19:36;2.75;;;1.63;;
16870;SDS011;8552;48.120;-1.456;2022-09-12T07:22:02;3.13;;;1.73;;
16870;SDS011;8552;48.120;-1.456;2022-09-12T07:24:28;2.28;;;1.55;;
16870;SDS011;8552;48.120;-1.456;2022-09-12T07:26:53;4.30;;;1.98;;
16870;SDS011;8552;48.120;-1.456;2022-09-12T07:29:20;2.55;;;2.13;;
16870;SDS011;8552;48.120;-1.456;2022-09-12T07:31:45;2.42;;;1.92;;
16870;SDS011;8552;48.120;-1.456;2022-09-12T07:34:11;3.47;;;2.10;;
16870;SDS011;8552;48.120;-1.456;2022-09-12T07:36:37;4.93;;;2.35;;
16870;SDS011;8552;48.120;-1.456;2022-09-12T07:39:03;3.03;;;2.17;;
16870;SDS011;8552;48.120;-1.456;2022-09-12T07:41:30;3.13;;;1.98;;
16870;SDS011;8552;48.120;-1.456;2022-09-12T07:43:58;4.75;;;1.95;;
16870;SDS011;8552;48.120;-1.456;2022-09-12T07:46:25;6.95;;;2.10;;
16870;SDS011;8552;48.120;-1.456;2022-09-12T07:48:54;4.35;;;1.50;;
16870;SDS011;8552;48.120;-1.456;2022-09-12T07:51:21;4.70;;;1.83;;
16870;SDS011;8552;48.120;-1.456;2022-09-12T07:53:48;1.83;;;1.40;;
16870;SDS011;8552;48.120;-1.456;2022-09-12T07:56:15;3.60;;;1.65;;
16870;SDS011;8552;48.120;-1.456;2022-09-12T07:58:42;2.83;;;1.48;;
16870;SDS011;8552;48.120;-1.456;2022-09-12T08:01:09;4.28;;;1.40;;
16870;SDS011;8552;48.120;-1.456;2022-09-12T08:03:42;2.45;;;1.70;;
16870;SDS011;8552;48.120;-1.456;2022-09-12T08:06:11;2.17;;;1.45;;
16870;SDS011;8552;48.120;-1.456;2022-09-12T08:08:38;3.05;;;1.55;;
16870;SDS011;8552;48.120;-1.456;2022-09-12T08:11:05;3.05;;;2.05;;
16870;SDS011;8552;48.120;-1.456;2022-09-12T08:13:34;2.72;;;1.55;;
16870;SDS011;8552;48.120;-1.456;2022-09-12T08:16:02;1.60;;;1.00;;
16870;SDS011;8552;48.120;-1.456;2022-09-12T08:18:30;1.90;;;1.10;;
16870;SDS011;8552;48.120;-1.456;2022-09-12T08:20:57;1.50;;;0.95;;
16870;SDS011;8552;48.120;-1.456;2022-09-12T08:23:24;1.48;;;1.05;;
16870;SDS011;8552;48.120;-1.456;2022-09-12T08:25:54;1.42;;;1.20;;
16870;SDS011;8552;48.120;-1.456;2022-09-12T08:28:21;0.80;;;0.70;;
16870;SDS011;8552;48.120;-1.456;2022-09-12T08:30:46;2.33;;;1.02;;
16870;SDS011;8552;48.120;-1.456;2022-09-12T08:33:12;3.25;;;1.30;;
16870;SDS011;8552;48.120;-1.456;2022-09-12T08:35:39;1.92;;;0.98;;
16870;SDS011;8552;48.120;-1.456;2022-09-12T08:38:04;3.22;;;0.90;;
16870;SDS011;8552;48.120;-1.456;2022-09-12T08:40:30;2.63;;;1.10;;
16870;SDS011;8552;48.120;-1.456;2022-09-12T08:43:06;1.92;;;1.50;;
16870;SDS011;8552;48.120;-1.456;2022-09-12T08:45:50;2.45;;;1.42;;
16870;SDS011;8552;48.120;-1.456;2022-09-12T08:48:21;2.28;;;1.33;;
16870;SDS011;8552;48.120;-1.456;2022-09-12T08:50:46;3.03;;;1.30;;
16870;SDS011;8552;48.120;-1.456;2022-09-12T08:53:13;1.50;;;1.00;;
16870;SDS011;8552;48.120;-1.456;2022-09-12T08:55:43;1.42;;;1.05;;
16870;SDS011;8552;48.120;-1.456;2022-09-12T08:58:19;2.15;;;1.10;;
16870;SDS011;8552;48.120;-1.456;2022-09-12T09:09:00;1.95;;;0.90;;
16870;SDS011;8552;48.120;-1.456;2022-09-12T09:11:45;1.13;;;1.02;;
16870;SDS011;8552;48.120;-1.456;2022-09-12T09:17:16;2.97;;;0.70;;
16870;SDS011;8552;48.120;-1.456;2022-09-12T09:19:48;0.80;;;0.70;;
16870;SDS011;8552;48.120;-1.456;2022-09-12T09:22:40;1.65;;;0.55;;
16870;SDS011;8552;48.120;-1.456;2022-09-12T09:25:20;3.55;;;1.05;;
16870;SDS011;8552;48.120;-1.456;2022-09-12T09:28:13;2.45;;;0.70;;
16870;SDS011;8552;48.120;-1.456;2022-09-12T09:30:46;1.55;;;0.90;;
16870;SDS011;8552;48.120;-1.456;2022-09-12T09:33:23;1.58;;;0.60;;
16870;SDS011;8552;48.120;-1.456;2022-09-12T09:35:57;0.70;;;0.70;;
16870;SDS011;8552;48.120;-1.456;2022-09-12T09:41:26;1.33;;;0.65;;
16870;SDS011;8552;48.120;-1.456;2022-09-12T09:43:55;2.15;;;0.73;;
16870;SDS011;8552;48.120;-1.456;2022-09-12T09:46:22;1.73;;;0.60;;
16870;SDS011;8552;48.120;-1.456;2022-09-12T09:48:48;1.25;;;0.60;;
16870;SDS011;8552;48.120;-1.456;2022-09-12T09:51:19;1.20;;;0.80;;
16870;SDS011;8552;48.120;-1.456;2022-09-12T09:53:50;2.88;;;1.13;;
16870;SDS011;8552;48.120;-1.456;2022-09-12T09:59:14;1.20;;;1.02;;
16870;SDS011;8552;48.120;-1.456;2022-09-12T10:01:45;0.90;;;0.70;;
16870;SDS011;8552;48.120;-1.456;2022-09-12T10:04:18;2.15;;;1.08;;
16870;SDS011;8552;48.120;-1.456;2022-09-12T10:06:58;2.35;;;1.10;;
16870;SDS011;8552;48.120;-1.456;2022-09-12T10:09:26;2.90;;;1.30;;
16870;SDS011;8552;48.120;-1.456;2022-09-12T10:11:54;3.83;;;0.98;;
16870;SDS011;8552;48.120;-1.456;2022-09-12T10:14:32;1.63;;;1.05;;
16870;SDS011;8552;48.120;-1.456;2022-09-12T10:17:01;1.33;;;0.80;;
16870;SDS011;8552;48.120;-1.456;2022-09-12T10:19:46;0.70;;;0.70;;
16870;SDS011;8552;48.120;-1.456;2022-09-12T10:22:14;1.98;;;0.95;;
16870;SDS011;8552;48.120;-1.456;2022-09-12T10:24:55;1.70;;;1.08;;
16870;SDS011;8552;48.120;-1.456;2022-09-12T10:27:29;1.73;;;1.40;;
16870;SDS011;8552;48.120;-1.456;2022-09-12T10:30:01;2.53;;;0.70;;
16870;SDS011;8552;48.120;-1.456;2022-09-12T10:32:37;2.10;;;0.80;;
16870;SDS011;8552;48.120;-1.456;2022-09-12T10:35:05;1.33;;;0.60;;
16870;SDS011;8552;48.120;-1.456;2022-09-12T10:37:42;1.52;;;0.70;;
16870;SDS011;8552;48.120;-1.456;2022-09-12T10:40:24;1.75;;;0.82;;
16870;SDS011;8552;48.120;-1.456;2022-09-12T10:42:59;1.00;;;0.50;;
16870;SDS011;8552;48.120;-1.456;2022-09-12T10:45:30;0.95;;;0.57;;
16870;SDS011;8552;48.120;-1.456;2022-09-12T10:47:58;3.63;;;0.82;;
16870;SDS011;8552;48.120;-1.456;2022-09-12T11:07:18;1.52;;;0.70;;
16870;SDS011;8552;48.120;-1.456;2022-09-12T11:12:52;0.90;;;0.60;;
16870;SDS011;8552;48.120;-1.456;2022-09-12T11:18:07;3.10;;;0.60;;
16870;SDS011;8552;48.120;-1.456;2022-09-12T11:35:18;0.95;;;0.50;;
16870;SDS011;8552;48.120;-1.456;2022-09-12T11:43:02;0.60;;;0.32;;
16870;SDS011;8552;48.120;-1.456;2022-09-12T11:45:36;0.40;;;0.35;;
16870;SDS011;8552;48.120;-1.456;2022-09-12T11:48:07;0.57;;;0.50;;
16870;SDS011;8552;48.120;-1.456;2022-09-12T11:50:38;2.50;;;0.60;;
16870;SDS011;8552;48.120;-1.456;2022-09-12T11:53:10;2.67;;;0.50;;
16870;SDS011;8552;48.120;-1.456;2022-09-12T11:58:19;1.17;;;0.38;;
16870;SDS011;8552;48.120;-1.456;2022-09-12T12:00:50;1.95;;;0.40;;
16870;SDS011;8552;48.120;-1.456;2022-09-12T12:03:39;1.33;;;0.35;;
16870;SDS011;8552;48.120;-1.456;2022-09-12T12:06:16;1.27;;;0.40;;
16870;SDS011;8552;48.120;-1.456;2022-09-12T12:08:49;0.47;;;0.30;;
16870;SDS011;8552;48.120;-1.456;2022-09-12T12:11:33;0.55;;;0.40;;
16870;SDS011;8552;48.120;-1.456;2022-09-12T12:14:03;1.23;;;0.30;;
16870;SDS011;8552;48.120;-1.456;2022-09-12T12:16:44;0.68;;;0.40;;
16870;SDS011;8552;48.120;-1.456;2022-09-12T12:21:40;1.52;;;0.52;;
16870;SDS011;8552;48.120;-1.456;2022-09-12T12:24:20;1.33;;;0.40;;
16870;SDS011;8552;48.120;-1.456;2022-09-12T12:27:00;1.73;;;0.45;;
16870;SDS011;8552;48.120;-1.456;2022-09-12T12:29:35;0.63;;;0.38;;
16870;SDS011;8552;48.120;-1.456;2022-09-12T12:34:32;0.85;;;0.32;;
16870;SDS011;8552;48.120;-1.456;2022-09-12T12:44:56;0.75;;;0.30;;
16870;SDS011;8552;48.120;-1.456;2022-09-12T12:47:27;0.30;;;0.30;;
16870;SDS011;8552;48.120;-1.456;2022-09-12T12:58:06;0.80;;;0.30;;
16870;SDS011;8552;48.120;-1.456;2022-09-12T13:00:47;1.08;;;0.40;;
16870;SDS011;8552;48.120;-1.456;2022-09-12T13:03:34;0.98;;;0.35;;
16870;SDS011;8552;48.120;-1.456;2022-09-12T13:06:03;1.55;;;0.40;;
16870;SDS011;8552;48.120;-1.456;2022-09-12T13:08:32;1.52;;;0.50;;
16870;SDS011;8552;48.120;-1.456;2022-09-12T13:13:41;0.73;;;0.40;;
16870;SDS011;8552;48.120;-1.456;2022-09-12T13:16:35;2.03;;;0.40;;
16870;SDS011;8552;48.120;-1.456;2022-09-12T13:19:27;1.15;;;0.30;;
16870;SDS011;8552;48.120;-1.456;2022-09-12T13:22:00;1.15;;;0.43;;
16870;SDS011;8552;48.120;-1.456;2022-09-12T13:24:27;2.78;;;0.80;;
16870;SDS011;8552;48.120;-1.456;2022-09-12T13:26:53;3.83;;;0.63;;
16870;SDS011;8552;48.120;-1.456;2022-09-12T13:29:22;1.85;;;0.70;;
16870;SDS011;8552;48.120;-1.456;2022-09-12T13:31:59;2.15;;;0.65;;
16870;SDS011;8552;48.120;-1.456;2022-09-12T13:34:28;0.70;;;0.57;;
16870;SDS011;8552;48.120;-1.456;2022-09-12T13:45:11;0.57;;;0.45;;
16870;SDS011;8552;48.120;-1.456;2022-09-12T13:47:56;1.85;;;0.52;;
16870;SDS011;8552;48.120;-1.456;2022-09-12T13:53:05;0.80;;;0.50;;
16870;SDS011;8552;48.120;-1.456;2022-09-12T13:55:38;2.28;;;0.70;;
16870;SDS011;8552;48.120;-1.456;2022-09-12T13:58:18;0.40;;;0.30;;
16870;SDS011;8552;48.120;-1.456;2022-09-12T14:00:45;1.27;;;0.52;;
16870;SDS011;8552;48.120;-1.456;2022-09-12T14:03:23;0.47;;;0.47;;
16870;SDS011;8552;48.120;-1.456;2022-09-12T14:06:15;0.50;;;0.40;;
16870;SDS011;8552;48.120;-1.456;2022-09-12T14:08:43;2.83;;;0.47;;
16870;SDS011;8552;48.120;-1.456;2022-09-12T14:11:25;1.60;;;0.63;;
16870;SDS011;8552;48.120;-1.456;2022-09-12T14:13:52;0.38;;;0.30;;
16870;SDS011;8552;48.120;-1.456;2022-09-12T14:16:20;0.68;;;0.50;;
16870;SDS011;8552;48.120;-1.456;2022-09-12T14:18:48;4.97;;;0.65;;
16870;SDS011;8552;48.120;-1.456;2022-09-12T14:23:56;0.57;;;0.57;;
16870;SDS011;8552;48.120;-1.456;2022-09-12T14:26:24;0.82;;;0.22;;
16870;SDS011;8552;48.120;-1.456;2022-09-12T14:28:56;2.30;;;0.30;;
16870;SDS011;8552;48.120;-1.456;2022-09-12T14:31:23;1.13;;;0.40;;
16870;SDS011;8552;48.120;-1.456;2022-09-12T14:33:54;1.65;;;0.50;;
16870;SDS011;8552;48.120;-1.456;2022-09-12T14:36:22;0.73;;;0.50;;
16870;SDS011;8552;48.120;-1.456;2022-09-12T14:39:06;0.73;;;0.30;;
16870;SDS011;8552;48.120;-1.456;2022-09-12T14:41:46;0.55;;;0.40;;
16870;SDS011;8552;48.120;-1.456;2022-09-12T14:44:16;1.42;;;0.50;;
16870;SDS011;8552;48.120;-1.456;2022-09-12T14:46:45;1.15;;;0.50;;
16870;SDS011;8552;48.120;-1.456;2022-09-12T15:00:03;0.30;;;0.30;;
16870;SDS011;8552;48.120;-1.456;2022-09-12T15:02:50;2.30;;;0.50;;
16870;SDS011;8552;48.120;-1.456;2022-09-12T15:05:23;3.30;;;0.50;;
16870;SDS011;8552;48.120;-1.456;2022-09-12T15:10:33;2.35;;;0.57;;
16870;SDS011;8552;48.120;-1.456;2022-09-12T15:16:13;2.83;;;0.50;;
16870;SDS011;8552;48.120;-1.456;2022-09-12T15:18:33;1.35;;;0.50;;
16870;SDS011;8552;48.120;-1.456;2022-09-12T15:21:02;2.58;;;0.52;;
16870;SDS011;8552;48.120;-1.456;2022-09-12T15:23:31;0.50;;;0.30;;
16870;SDS011;8552;48.120;-1.456;2022-09-12T15:26:05;1.13;;;0.30;;
16870;SDS011;8552;48.120;-1.456;2022-09-12T15:28:31;1.00;;;0.43;;
16870;SDS011;8552;48.120;-1.456;2022-09-12T15:30:59;1.30;;;0.40;;
16870;SDS011;8552;48.120;-1.456;2022-09-12T15:33:32;0.50;;;0.45;;
16870;SDS011;8552;48.120;-1.456;2022-09-12T15:35:58;0.80;;;0.38;;
16870;SDS011;8552;48.120;-1.456;2022-09-12T15:38:23;1.13;;;0.40;;
16870;SDS011;8552;48.120;-1.456;2022-09-12T15:40:50;1.73;;;0.43;;
16870;SDS011;8552;48.120;-1.456;2022-09-12T15:43:19;0.30;;;0.30;;
16870;SDS011;8552;48.120;-1.456;2022-09-12T15:45:46;1.30;;;0.30;;
16870;SDS011;8552;48.120;-1.456;2022-09-12T15:48:12;1.48;;;0.55;;
16870;SDS011;8552;48.120;-1.456;2022-09-12T15:50:39;2.63;;;0.50;;
16870;SDS011;8552;48.120;-1.456;2022-09-12T15:53:07;3.03;;;0.65;;
16870;SDS011;8552;48.120;-1.456;2022-09-12T15:55:38;0.52;;;0.40;;
16870;SDS011;8552;48.120;-1.456;2022-09-12T15:58:04;0.65;;;0.45;;
16870;SDS011;8552;48.120;-1.456;2022-09-12T16:00:29;0.47;;;0.28;;
16870;SDS011;8552;48.120;-1.456;2022-09-12T16:02:55;0.40;;;0.40;;
16870;SDS011;8552;48.120;-1.456;2022-09-12T16:05:22;0.45;;;0.32;;
16870;SDS011;8552;48.120;-1.456;2022-09-12T16:07:50;1.73;;;0.35;;
16870;SDS011;8552;48.120;-1.456;2022-09-12T16:10:23;2.22;;;0.30;;
16870;SDS011;8552;48.120;-1.456;2022-09-12T16:12:51;1.48;;;0.20;;
16870;SDS011;8552;48.120;-1.456;2022-09-12T16:15:21;2.30;;;0.43;;
16870;SDS011;8552;48.120;-1.456;2022-09-12T16:17:48;1.80;;;0.60;;
16870;SDS011;8552;48.120;-1.456;2022-09-12T16:20:15;0.52;;;0.20;;
16870;SDS011;8552;48.120;-1.456;2022-09-12T16:22:42;1.42;;;0.25;;
16870;SDS011;8552;48.120;-1.456;2022-09-12T16:25:07;0.55;;;0.40;;
16870;SDS011;8552;48.120;-1.456;2022-09-12T16:27:34;1.25;;;0.25;;
16870;SDS011;8552;48.120;-1.456;2022-09-12T16:30:00;1.10;;;0.40;;
16870;SDS011;8552;48.120;-1.456;2022-09-12T16:32:26;1.00;;;0.45;;
16870;SDS011;8552;48.120;-1.456;2022-09-12T16:34:51;2.80;;;0.50;;
16870;SDS011;8552;48.120;-1.456;2022-09-12T16:37:17;0.65;;;0.32;;
16870;SDS011;8552;48.120;-1.456;2022-09-12T16:39:43;1.05;;;0.57;;
16870;SDS011;8552;48.120;-1.456;2022-09-12T16:42:09;0.80;;;0.30;;
16870;SDS011;8552;48.120;-1.456;2022-09-12T16:44:35;2.13;;;0.30;;
16870;SDS011;8552;48.120;-1.456;2022-09-12T16:47:00;2.55;;;0.50;;
16870;SDS011;8552;48.120;-1.456;2022-09-12T16:49:26;0.80;;;0.50;;
16870;SDS011;8552;48.120;-1.456;2022-09-12T16:51:51;1.67;;;0.47;;
16870;SDS011;8552;48.120;-1.456;2022-09-12T16:54:17;1.98;;;0.60;;
16870;SDS011;8552;48.120;-1.456;2022-09-12T16:56:43;1.60;;;0.50;;
16870;SDS011;8552;48.120;-1.456;2022-09-12T16:59:10;2.83;;;0.70;;
16870;SDS011;8552;48.120;-1.456;2022-09-12T17:01:40;3.55;;;0.73;;
16870;SDS011;8552;48.120;-1.456;2022-09-12T17:04:06;1.13;;;0.50;;
16870;SDS011;8552;48.120;-1.456;2022-09-12T17:06:34;5.57;;;0.60;;
16870;SDS011;8552;48.120;-1.456;2022-09-12T17:09:00;0.98;;;0.40;;
16870;SDS011;8552;48.120;-1.456;2022-09-12T17:11:31;0.75;;;0.40;;
16870;SDS011;8552;48.120;-1.456;2022-09-12T17:13:58;1.92;;;0.30;;
16870;SDS011;8552;48.120;-1.456;2022-09-12T17:16:25;0.25;;;0.25;;
16870;SDS011;8552;48.120;-1.456;2022-09-12T17:18:52;2.15;;;0.40;;
16870;SDS011;8552;48.120;-1.456;2022-09-12T17:21:18;1.80;;;0.50;;
16870;SDS011;8552;48.120;-1.456;2022-09-12T17:23:44;1.45;;;0.52;;
16870;SDS011;8552;48.120;-1.456;2022-09-12T17:26:10;3.38;;;0.68;;
16870;SDS011;8552;48.120;-1.456;2022-09-12T17:28:36;2.60;;;0.55;;
16870;SDS011;8552;48.120;-1.456;2022-09-12T17:31:07;1.95;;;0.40;;
16870;SDS011;8552;48.120;-1.456;2022-09-12T17:33:35;0.30;;;0.30;;
16870;SDS011;8552;48.120;-1.456;2022-09-12T17:36:04;0.25;;;0.25;;
16870;SDS011;8552;48.120;-1.456;2022-09-12T17:38:32;1.45;;;0.22;;
16870;SDS011;8552;48.120;-1.456;2022-09-12T17:41:21;0.35;;;0.35;;
16870;SDS011;8552;48.120;-1.456;2022-09-12T17:43:47;5.32;;;0.70;;
16870;SDS011;8552;48.120;-1.456;2022-09-12T17:46:15;3.33;;;0.65;;
16870;SDS011;8552;48.120;-1.456;2022-09-12T17:48:42;2.25;;;0.50;;
16870;SDS011;8552;48.120;-1.456;2022-09-12T17:51:09;3.30;;;1.00;;
16870;SDS011;8552;48.120;-1.456;2022-09-12T17:53:37;3.75;;;0.82;;
16870;SDS011;8552;48.120;-1.456;2022-09-12T17:56:04;6.65;;;0.82;;
16870;SDS011;8552;48.120;-1.456;2022-09-12T17:58:31;5.40;;;1.30;;